Time;durP1;ratioP1;P1;durP2;ratioP2;P2;SDS_P1;SDS_P2;PMS_P1;PMS_P2;Temp;Humidity;BMP_temperature;BMP_pressure;BME280_temperature;BME280_humidity;BME280_pressure;Samples;Min_cycle;Max_cycle;Signal;HPM_P1;HPM_P2
2022/06/11 00:03:07;;;;;;;1.83;0.90;;;;;;;;;;21032399;28;20273;-74
2022/06/11 00:13:10;;;;;;;1.10;0.67;;;;;;;;;;21022496;28;20268;-74
2022/06/11 00:23:12;;;;;;;2.53;0.98;;;;;;;;;;20957084;28;20277;-74
2022/06/11 00:33:14;;;;;;;5.35;0.73;;;;;;;;;;20943235;28;20229;-74
2022/06/11 00:43:20;;;;;;;1.67;0.80;;;20.60;99.90;;;;;;21028800;28;20272;-74
2022/06/11 00:53:31;;;;;;;1.33;0.90;;;;;;;;;;21027905;28;20275;-73
2022/06/11 01:03:36;;;;;;;1.17;0.60;;;20.40;99.90;;;;;;21017638;28;20279;-73
2022/06/11 01:14:19;;;;;;;0.83;0.50;;;20.40;99.90;;;;;;21008187;28;20225;-74
2022/06/11 01:24:24;;;;;;;1.50;0.80;;;;;;;;;;20996846;28;20289;-74
2022/06/11 01:34:39;;;;;;;1.17;0.70;;;20.00;99.90;;;;;;20934866;22;20240;-86
2022/06/11 01:56:18;;;;;;;1.30;0.70;;;;;;;;;;21090726;22;20234;-70
2022/06/11 02:06:35;;;;;;;1.07;0.60;;;19.30;99.90;;;;;;21022434;28;20234;-71
2022/06/11 02:16:49;;;;;;;2.00;0.63;;;;;;;;;;21035002;28;20296;-69
2022/06/11 02:26:53;;;;;;;1.53;0.80;;;;;;;;;;21038028;28;20237;-69
2022/06/11 02:37:17;;;;;;;1.80;0.70;;;19.30;99.90;;;;;;21064759;28;20261;-69
2022/06/11 02:47:20;;;;;;;0.67;0.50;;;19.00;99.90;;;;;;21081575;28;20264;-69
2022/06/11 02:57:24;;;;;;;2.90;0.70;;;;;;;;;;21081451;28;20213;-70
2022/06/11 03:07:26;;;;;;;1.63;0.90;;;;;;;;;;21066484;28;20620;-71
2022/06/11 03:17:28;;;;;;;4.73;1.23;;;;;;;;;;21047690;28;20770;-69
2022/06/11 03:27:30;;;;;;;1.30;0.80;;;;;;;;;;21041252;28;20215;-69
2022/06/11 03:37:32;;;;;;;1.63;0.73;;;;;;;;;;21062905;28;20223;-69
2022/06/11 03:47:36;;;;;;;1.57;0.60;;;;;;;;;;21050351;28;20572;-69
2022/06/11 03:57:38;;;;;;;1.53;0.83;;;;;;;;;;21048629;28;20219;-69
2022/06/11 04:07:40;;;;;;;1.17;0.77;;;;;;;;;;21047788;28;20208;-69
2022/06/11 04:17:42;;;;;;;2.00;0.70;;;;;;;;;;21046650;28;20267;-68
2022/06/11 04:27:44;;;;;;;1.37;0.90;;;19.00;99.90;;;;;;21046075;28;20207;-69
2022/06/11 04:37:47;;;;;;;2.03;0.90;;;19.00;99.90;;;;;;21078355;28;20276;-68
2022/06/11 04:47:49;;;;;;;2.77;1.10;;;;;;;;;;21060969;28;20650;-69
2022/06/11 04:57:51;;;;;;;1.67;1.00;;;18.90;99.90;;;;;;21043004;28;20226;-68
2022/06/11 05:07:53;;;;;;;0.87;0.60;;;18.70;99.90;;;;;;21059612;28;20216;-68
2022/06/11 05:17:56;;;;;;;0.93;0.73;;;;;;;;;;21058168;28;20636;-68
2022/06/11 05:27:58;;;;;;;1.23;0.60;;;;;;;;;;21057323;28;20275;-71
2022/06/11 05:38:05;;;;;;;4.23;2.23;;;19.40;99.90;;;;;;21030575;28;20231;-71
2022/06/11 05:48:08;;;;;;;1.33;0.90;;;19.70;99.90;;;;;;21073216;28;20223;-71
2022/06/11 05:58:15;;;;;;;2.73;1.30;;;19.70;99.90;;;;;;21000559;28;20226;-70
2022/06/11 06:08:17;;;;;;;1.00;0.80;;;;;;;;;;20991479;28;20277;-72
2022/06/11 06:18:20;;;;;;;1.73;1.00;;;20.40;99.90;;;;;;20926618;28;20642;-71
2022/06/11 06:28:22;;;;;;;1.03;0.73;;;;;;;;;;20946847;28;20216;-73
2022/06/11 06:38:24;;;;;;;1.53;0.60;;;20.40;99.90;;;;;;20953892;28;20305;-73
2022/06/11 06:48:27;;;;;;;0.63;0.60;;;;;;;;;;20953371;28;20714;-73
2022/06/11 06:58:29;;;;;;;1.90;0.90;;;;;;;;;;21009240;28;20303;-73
2022/06/11 07:08:31;;;;;;;1.77;0.80;;;;;;;;;;20999123;28;20231;-73
2022/06/11 07:18:39;;;;;;;1.47;0.83;;;21.40;99.90;;;;;;20983175;28;20236;-72
2022/06/11 07:28:45;;;;;;;1.30;0.80;;;;;;;;;;20963355;28;20227;-72
2022/06/11 07:38:47;;;;;;;0.95;0.50;;;;;;;;;;21061362;22;20233;-76
2022/06/11 07:48:49;;;;;;;2.63;0.50;;;22.20;99.90;;;;;;21080851;28;20212;-76
2022/06/11 07:58:52;;;;;;;4.03;0.70;;;;;;;;;;21082759;28;20220;-76
2022/06/11 08:08:54;;;;;;;0.55;0.50;;;;;;;;;;21082376;28;20212;-76
2022/06/11 08:18:56;;;;;;;1.23;0.60;;;;;;;;;;21081590;28;20328;-76
2022/06/11 08:28:58;;;;;;;1.02;0.50;;;;;;;;;;21064657;28;20204;-76
2022/06/11 08:39:00;;;;;;;1.63;0.55;;;;;;;;;;21065147;28;20266;-76
2022/06/11 08:49:04;;;;;;;1.33;0.63;;;;;;;;;;21064714;28;20271;-77
2022/06/11 08:59:14;;;;;;;1.05;0.52;;;24.10;99.90;;;;;;21063634;28;20792;-76
2022/06/11 09:09:45;;;;;;;1.35;0.80;;;24.50;99.90;;;;;;21079634;28;20247;-76
2022/06/11 09:20:24;;;;;;;1.05;0.50;;;24.80;99.90;;;;;;21039983;28;20265;-76
2022/06/11 09:30:38;;;;;;;1.20;0.50;;;25.10;99.90;;;;;;21063559;28;20259;-76
2022/06/11 09:40:50;;;;;;;1.05;0.50;;;24.70;99.90;;;;;;21061907;28;20221;-77
2022/06/11 09:50:54;;;;;;;1.02;0.50;;;;;;;;;;21060255;28;20234;-76
2022/06/11 10:01:09;;;;;;;1.85;0.57;;;25.30;99.90;;;;;;21042973;28;20246;-76
2022/06/11 10:11:17;;;;;;;1.15;0.50;;;;;;;;;;21076492;28;20208;-76
2022/06/11 10:21:20;;;;;;;1.20;0.50;;;26.00;99.90;;;;;;21057838;28;20207;-76
2022/06/11 10:31:33;;;;;;;1.65;0.50;;;26.30;99.90;;;;;;21054381;28;20755;-76
2022/06/11 10:41:36;;;;;;;2.47;0.50;;;;;;;;;;21070933;28;20280;-76
2022/06/11 10:51:38;;;;;;;0.95;0.40;;;26.10;97.20;;;;;;21076667;28;20619;-76
2022/06/11 11:01:48;;;;;;;2.47;0.40;;;26.60;99.20;;;;;;21086811;28;20220;-76
2022/06/11 11:11:56;;;;;;;1.00;0.43;;;27.00;99.90;;;;;;21053017;28;20248;-77
2022/06/11 11:22:04;;;;;;;1.55;0.68;;;;;;;;;;21085774;28;20192;-76
2022/06/11 11:32:24;;;;;;;0.57;0.40;;;;;;;;;;21067334;28;20220;-76
2022/06/11 11:42:27;;;;;;;0.60;0.35;;;;;;;;;;21066311;28;20694;-76
2022/06/11 11:52:29;;;;;;;1.92;0.45;;;;;;;;;;21047670;28;20224;-76
2022/06/11 12:02:47;;;;;;;1.13;0.57;;;26.80;99.90;;;;;;21083363;28;20223;-76
2022/06/11 12:12:50;;;;;;;3.03;0.60;;;;;;;;;;21049277;28;20272;-76
2022/06/11 12:22:58;;;;;;;0.98;0.50;;;;;;;;;;21080939;28;20286;-77
2022/06/11 12:33:00;;;;;;;0.55;0.32;;;;;;;;;;21082304;28;20218;-77
2022/06/11 12:43:34;;;;;;;1.00;0.60;;;27.70;83.50;;;;;;21085188;28;20225;-77
2022/06/11 12:53:55;;;;;;;1.40;0.57;;;;;;;;;;21072377;28;20222;-77
2022/06/11 13:04:34;;;;;;;1.13;0.52;;;;;;;;;;21069597;28;20234;-77
2022/06/11 13:14:45;;;;;;;2.33;0.50;;;;;;;;;;21085505;28;20264;-77
2022/06/11 13:25:10;;;;;;;1.65;0.43;;;28.60;97.50;;;;;;21081078;28;20215;-77
2022/06/11 13:35:46;;;;;;;0.75;0.47;;;28.60;95.30;;;;;;21049054;28;20228;-77
2022/06/11 13:45:53;;;;;;;1.20;0.73;;;;;;;;;;21084439;28;20203;-77
2022/06/11 13:55:55;;;;;;;1.08;0.60;;;;;;;;;;21066370;28;20284;-77
2022/06/11 14:06:01;;;;;;;0.98;0.47;;;29.30;85.70;;;;;;21066414;28;20329;-77
2022/06/11 14:16:41;;;;;;;0.43;0.30;;;;;;;;;;21081948;28;20241;-77
2022/06/11 14:26:43;;;;;;;2.85;0.70;;;;;;;;;;20870805;28;20239;-77
2022/06/11 14:37:06;;;;;;;0.55;0.30;;;;;;;;;;21078073;28;20234;-77
2022/06/11 14:47:26;;;;;;;2.17;0.40;;;;;;;;;;21076372;28;20203;-77
2022/06/11 14:57:28;;;;;;;0.85;0.50;;;;;;;;;;21057126;28;20284;-77
2022/06/11 15:07:30;;;;;;;1.35;0.60;;;;;;;;;;21058957;28;20254;-77
2022/06/11 15:17:31;;;;;;;1.65;0.90;;;;;;;;;;21058786;28;20271;-76
2022/06/11 15:27:38;;;;;;;1.00;0.55;;;28.50;91.40;;;;;;21043877;28;20204;-77
2022/06/11 15:37:44;;;;;;;2.55;0.60;;;;;;;;;;21063045;28;20254;-76
2022/06/11 15:48:17;;;;;;;1.35;0.40;;;29.10;93.60;;;;;;21064591;28;20821;-77
2022/06/11 15:58:22;;;;;;;1.10;0.50;;;;;;;;;;21050139;28;20223;-77
2022/06/11 16:08:33;;;;;;;0.52;0.40;;;29.60;93.90;;;;;;21076409;28;20278;-77
2022/06/11 16:18:38;;;;;;;0.50;0.30;;;;;;;;;;21043485;28;20697;-77
2022/06/11 16:28:41;;;;;;;1.80;0.60;;;;;;;;;;21046615;28;20232;-77
2022/06/11 16:39:03;;;;;;;0.68;0.52;;;29.60;91.30;;;;;;21051766;28;20226;-77
2022/06/11 16:56:06;;;;;;;1.02;0.60;;;;;;;;;;21073742;28;20731;-77
2022/06/11 16:59:56;;;;;;;4.65;1.00;;;;;;;;;;21064037;28;20644;-77
2022/06/11 17:09:58;;;;;;;1.83;0.50;;;;;;;;;;21034990;28;20219;-77
2022/06/11 17:20:01;;;;;;;0.75;0.40;;;;;;;;;;21014006;28;20228;-76
2022/06/11 17:30:11;;;;;;;0.80;0.40;;;;;;;;;;21022353;28;20216;-77
2022/06/11 17:40:24;;;;;;;1.10;0.30;;;;;;;;;;21008689;28;20685;-77
2022/06/11 17:50:27;;;;;;;0.88;0.40;;;;;;;;;;21029289;28;20211;-76
2022/06/11 18:00:29;;;;;;;1.30;0.50;;;;;;;;;;21052268;28;20290;-77
2022/06/11 18:10:35;;;;;;;1.52;0.30;;;28.00;90.90;;;;;;21045011;28;20219;-77
2022/06/11 18:20:37;;;;;;;0.63;0.28;;;;;;;;;;21041000;28;20236;-77
2022/06/11 18:30:42;;;;;;;0.63;0.30;;;27.80;92.10;;;;;;21022976;28;20447;-77
2022/06/11 18:40:44;;;;;;;0.82;0.40;;;27.80;86.20;;;;;;21062934;28;20215;-77
2022/06/11 18:50:46;;;;;;;0.95;0.55;;;;;;;;;;21061491;28;20211;-77
2022/06/11 19:00:48;;;;;;;1.10;0.50;;;;;;;;;;21067060;28;20633;-77
2022/06/11 19:10:50;;;;;;;0.50;0.32;;;;;;;;;;21049915;28;20299;-76
2022/06/11 19:20:54;;;;;;;1.88;0.50;;;27.40;96.40;;;;;;21063040;28;20231;-79
2022/06/11 19:30:58;;;;;;;2.22;0.60;;;27.10;99.90;;;;;;21064727;28;20647;-77
2022/06/11 19:41:07;;;;;;;0.95;0.40;;;26.90;99.90;;;;;;21092782;22;20266;-75
2022/06/11 19:51:10;;;;;;;2.08;0.57;;;;;;;;;;21078380;28;20252;-75
2022/06/11 20:01:31;;;;;;;1.00;0.50;;;;;;;;;;21058913;28;20202;-75
2022/06/11 20:11:33;;;;;;;1.05;0.60;;;;;;;;;;21050687;28;20262;-74
2022/06/11 20:21:36;;;;;;;2.67;0.70;;;;;;;;;;21137479;28;20712;-74
2022/06/11 20:31:38;;;;;;;0.95;0.50;;;26.10;97.90;;;;;;21135544;28;20213;-75
2022/06/11 20:41:40;;;;;;;0.70;0.38;;;;;;;;;;21153407;28;20241;-74
2022/06/11 20:51:42;;;;;;;2.05;0.73;;;;;;;;;;21133804;28;20271;-76
2022/06/11 21:01:44;;;;;;;0.80;0.50;;;;;;;;;;21150296;28;20630;-73
2022/06/11 21:11:51;;;;;;;1.23;0.50;;;;;;;;;;21152480;28;20280;-76
2022/06/11 21:21:58;;;;;;;0.90;0.55;;;;;;;;;;21148957;28;20215;-75
2022/06/11 21:32:38;;;;;;;2.55;0.90;;;;;;;;;;21132531;28;20261;-73
2022/06/11 21:42:41;;;;;;;1.17;0.52;;;;;;;;;;21096013;28;20210;-75
2022/06/11 21:52:44;;;;;;;1.75;0.77;;;;;;;;;;21128672;28;20610;-75
2022/06/11 22:02:47;;;;;;;1.33;0.63;;;;;;;;;;21145298;28;20472;-75
2022/06/11 22:12:48;;;;;;;3.13;1.40;;;;;;;;;;21131446;28;20267;-75
2022/06/11 22:22:51;;;;;;;0.93;0.60;;;;;;;;;;21094621;28;20683;-76
2022/06/11 22:32:53;;;;;;;1.00;0.60;;;;;;;;;;21152958;28;20210;-76
2022/06/11 22:42:55;;;;;;;1.17;0.60;;;;;;;;;;21153352;28;20225;-76
2022/06/11 22:52:58;;;;;;;1.25;0.68;;;24.20;99.90;;;;;;21169273;28;20255;-76
2022/06/11 23:03:03;;;;;;;1.92;0.88;;;24.10;99.90;;;;;;21150883;28;20213;-76
2022/06/11 23:13:06;;;;;;;0.98;0.70;;;;;;;;;;21117332;28;20215;-76
2022/06/11 23:23:08;;;;;;;1.23;0.75;;;;;;;;;;21168695;28;20197;-75
2022/06/11 23:33:13;;;;;;;0.85;0.60;;;23.90;99.90;;;;;;21167140;28;20237;-75
2022/06/11 23:43:16;;;;;;;1.38;0.70;;;23.70;99.90;;;;;;21117935;28;20226;-75
2022/06/11 23:53:18;;;;;;;3.63;1.00;;;;;;;;;;21112652;28;20621;-76
